sensor_id;sensor_type;location;lat;lon;timestamp;pressure;altitude;pressure_sealevel;temperature;humidity
11692;BME280;33659;42.672;23.354;2023-03-21T00:01:33;94195.19;;;15.56;44.17
11692;BME280;33659;42.672;23.354;2023-03-21T00:04:02;94188.41;;;15.55;44.36
11692;BME280;33659;42.672;23.354;2023-03-21T00:06:28;94187.66;;;15.54;44.42
11692;BME280;33659;42.672;23.354;2023-03-21T00:08:55;94183.88;;;15.52;44.39
11692;BME280;33659;42.672;23.354;2023-03-21T00:11:22;94189.50;;;15.50;44.58
11692;BME280;33659;42.672;23.354;2023-03-21T00:13:49;94199.28;;;15.50;44.59
11692;BME280;33659;42.672;23.354;2023-03-21T00:16:18;94194.00;;;15.46;45.11
11692;BME280;33659;42.672;23.354;2023-03-21T00:18:47;94194.31;;;15.41;45.04
11692;BME280;33659;42.672;23.354;2023-03-21T00:21:19;94181.44;;;15.32;45.06
11692;BME280;33659;42.672;23.354;2023-03-21T00:23:46;94188.03;;;15.15;45.42
11692;BME280;33659;42.672;23.354;2023-03-21T00:26:13;94187.53;;;15.03;45.82
11692;BME280;33659;42.672;23.354;2023-03-21T00:28:42;94189.28;;;14.92;46.15
11692;BME280;33659;42.672;23.354;2023-03-21T00:31:09;94191.34;;;14.75;46.57
11692;BME280;33659;42.672;23.354;2023-03-21T00:33:36;94187.84;;;14.68;46.62
11692;BME280;33659;42.672;23.354;2023-03-21T00:36:04;94193.44;;;14.62;47.09
11692;BME280;33659;42.672;23.354;2023-03-21T00:38:32;94200.88;;;14.57;47.34
11692;BME280;33659;42.672;23.354;2023-03-21T00:40:59;94203.59;;;14.38;47.65
11692;BME280;33659;42.672;23.354;2023-03-21T00:43:26;94205.69;;;14.28;48.20
11692;BME280;33659;42.672;23.354;2023-03-21T00:45:55;94198.38;;;14.15;48.44
11692;BME280;33659;42.672;23.354;2023-03-21T00:48:22;94195.09;;;14.21;48.35
11692;BME280;33659;42.672;23.354;2023-03-21T00:50:50;94202.47;;;14.12;48.61
11692;BME280;33659;42.672;23.354;2023-03-21T00:53:17;94190.03;;;14.09;48.64
11692;BME280;33659;42.672;23.354;2023-03-21T00:55:46;94166.75;;;13.81;49.03
11692;BME280;33659;42.672;23.354;2023-03-21T00:58:13;94191.06;;;14.01;49.07
11692;BME280;33659;42.672;23.354;2023-03-21T01:00:39;94187.41;;;14.09;49.02
11692;BME280;33659;42.672;23.354;2023-03-21T01:03:09;94180.75;;;14.15;48.74
11692;BME280;33659;42.672;23.354;2023-03-21T01:05:38;94190.59;;;14.22;48.61
11692;BME280;33659;42.672;23.354;2023-03-21T01:08:23;94181.59;;;14.23;48.58
11692;BME280;33659;42.672;23.354;2023-03-21T01:10:52;94182.31;;;14.20;48.42
11692;BME280;33659;42.672;23.354;2023-03-21T01:13:20;94182.31;;;14.20;48.51
11692;BME280;33659;42.672;23.354;2023-03-21T01:15:49;94177.88;;;14.24;48.55
11692;BME280;33659;42.672;23.354;2023-03-21T01:18:19;94179.41;;;14.25;48.40
11692;BME280;33659;42.672;23.354;2023-03-21T01:20:46;94174.19;;;14.28;48.46
11692;BME280;33659;42.672;23.354;2023-03-21T01:23:14;94172.28;;;14.25;48.50
11692;BME280;33659;42.672;23.354;2023-03-21T01:25:41;94176.03;;;14.24;48.65
11692;BME280;33659;42.672;23.354;2023-03-21T01:28:09;94177.00;;;14.16;48.57
11692;BME280;33659;42.672;23.354;2023-03-21T01:30:36;94169.00;;;14.05;48.71
11692;BME280;33659;42.672;23.354;2023-03-21T01:33:03;94181.31;;;14.01;48.69
11692;BME280;33659;42.672;23.354;2023-03-21T01:35:29;94187.75;;;13.81;49.20
11692;BME280;33659;42.672;23.354;2023-03-21T01:37:56;94180.06;;;13.69;49.52
11692;BME280;33659;42.672;23.354;2023-03-21T01:40:24;94177.78;;;13.67;49.61
11692;BME280;33659;42.672;23.354;2023-03-21T01:42:52;94173.22;;;13.64;49.68
11692;BME280;33659;42.672;23.354;2023-03-21T01:48:29;94176.38;;;13.73;49.17
11692;BME280;33659;42.672;23.354;2023-03-21T01:50:56;94177.25;;;13.81;49.12
11692;BME280;33659;42.672;23.354;2023-03-21T01:53:26;94178.38;;;13.80;49.06
11692;BME280;33659;42.672;23.354;2023-03-21T01:55:55;94179.00;;;13.73;49.16
11692;BME280;33659;42.672;23.354;2023-03-21T01:58:23;94171.84;;;13.70;49.17
11692;BME280;33659;42.672;23.354;2023-03-21T02:00:51;94169.91;;;13.67;49.31
11692;BME280;33659;42.672;23.354;2023-03-21T02:03:18;94171.84;;;13.70;49.09
11692;BME280;33659;42.672;23.354;2023-03-21T02:05:51;94175.00;;;13.57;49.27
11692;BME280;33659;42.672;23.354;2023-03-21T02:08:20;94171.72;;;13.40;49.74
11692;BME280;33659;42.672;23.354;2023-03-21T02:10:48;94170.97;;;13.40;49.82
11692;BME280;33659;42.672;23.354;2023-03-21T02:13:16;94173.53;;;13.36;50.02
11692;BME280;33659;42.672;23.354;2023-03-21T02:15:48;94165.25;;;13.34;50.02
11692;BME280;33659;42.672;23.354;2023-03-21T02:18:22;94164.97;;;13.20;50.13
11692;BME280;33659;42.672;23.354;2023-03-21T02:21:16;94165.16;;;13.08;50.46
11692;BME280;33659;42.672;23.354;2023-03-21T02:24:26;94158.66;;;13.01;50.83
11692;BME280;33659;42.672;23.354;2023-03-21T02:27:06;94153.28;;;12.94;50.83
11692;BME280;33659;42.672;23.354;2023-03-21T02:30:15;94165.44;;;12.83;51.33
11692;BME280;33659;42.672;23.354;2023-03-21T02:33:08;94166.53;;;12.82;51.33
11692;BME280;33659;42.672;23.354;2023-03-21T02:35:51;94165.28;;;12.95;51.01
11692;BME280;33659;42.672;23.354;2023-03-21T02:38:25;94157.19;;;13.04;50.83
11692;BME280;33659;42.672;23.354;2023-03-21T02:41:02;94161.06;;;13.10;50.56
11692;BME280;33659;42.672;23.354;2023-03-21T02:43:33;94160.44;;;13.17;50.26
11692;BME280;33659;42.672;23.354;2023-03-21T02:46:07;94163.28;;;13.27;49.97
11692;BME280;33659;42.672;23.354;2023-03-21T02:48:38;94152.31;;;13.22;49.93
11692;BME280;33659;42.672;23.354;2023-03-21T02:51:12;94161.44;;;13.32;50.13
11692;BME280;33659;42.672;23.354;2023-03-21T02:53:44;94151.44;;;13.37;50.03
11692;BME280;33659;42.672;23.354;2023-03-21T02:56:13;94153.00;;;13.42;50.25
11692;BME280;33659;42.672;23.354;2023-03-21T02:58:41;94161.00;;;13.49;50.01
11692;BME280;33659;42.672;23.354;2023-03-21T03:01:08;94155.41;;;13.50;49.88
11692;BME280;33659;42.672;23.354;2023-03-21T03:03:35;94151.25;;;13.49;49.91
11692;BME280;33659;42.672;23.354;2023-03-21T03:06:08;94150.50;;;13.49;49.78
11692;BME280;33659;42.672;23.354;2023-03-21T03:08:51;94159.53;;;13.51;49.71
11692;BME280;33659;42.672;23.354;2023-03-21T03:11:25;94162.59;;;13.53;49.50
11692;BME280;33659;42.672;23.354;2023-03-21T03:14:00;94154.34;;;13.55;49.44
11692;BME280;33659;42.672;23.354;2023-03-21T03:16:38;94158.97;;;13.62;49.25
11692;BME280;33659;42.672;23.354;2023-03-21T03:19:10;94157.50;;;13.64;49.19
11692;BME280;33659;42.672;23.354;2023-03-21T03:21:43;94167.97;;;13.64;49.29
11692;BME280;33659;42.672;23.354;2023-03-21T03:24:16;94161.28;;;13.67;49.39
11692;BME280;33659;42.672;23.354;2023-03-21T03:26:50;94154.28;;;13.51;49.83
11692;BME280;33659;42.672;23.354;2023-03-21T03:29:20;94156.22;;;13.12;50.70
11692;BME280;33659;42.672;23.354;2023-03-21T03:31:50;94162.69;;;12.76;51.56
11692;BME280;33659;42.672;23.354;2023-03-21T03:34:21;94167.63;;;12.62;51.73
11692;BME280;33659;42.672;23.354;2023-03-21T03:36:55;94166.09;;;12.61;51.59
11692;BME280;33659;42.672;23.354;2023-03-21T03:39:28;94163.09;;;12.59;51.94
11692;BME280;33659;42.672;23.354;2023-03-21T03:42:00;94163.50;;;12.61;51.99
11692;BME280;33659;42.672;23.354;2023-03-21T03:44:28;94160.53;;;12.62;51.96
11692;BME280;33659;42.672;23.354;2023-03-21T03:46:58;94165.84;;;12.66;51.90
11692;BME280;33659;42.672;23.354;2023-03-21T03:49:29;94154.13;;;12.60;51.96
11692;BME280;33659;42.672;23.354;2023-03-21T03:52:00;94168.09;;;12.48;51.75
11692;BME280;33659;42.672;23.354;2023-03-21T03:54:33;94167.16;;;12.37;52.38
11692;BME280;33659;42.672;23.354;2023-03-21T03:57:02;94166.06;;;12.22;52.54
11692;BME280;33659;42.672;23.354;2023-03-21T03:59:32;94165.16;;;12.14;52.30
11692;BME280;33659;42.672;23.354;2023-03-21T04:01:59;94167.38;;;12.12;52.80
11692;BME280;33659;42.672;23.354;2023-03-21T04:04:26;94165.66;;;12.04;53.02
11692;BME280;33659;42.672;23.354;2023-03-21T04:06:53;94155.75;;;11.94;52.67
11692;BME280;33659;42.672;23.354;2023-03-21T04:09:21;94160.53;;;12.08;52.53
11692;BME280;33659;42.672;23.354;2023-03-21T04:11:49;94166.59;;;12.12;52.22
11692;BME280;33659;42.672;23.354;2023-03-21T04:14:16;94171.91;;;12.15;52.00
11692;BME280;33659;42.672;23.354;2023-03-21T04:16:42;94165.91;;;12.15;51.69
11692;BME280;33659;42.672;23.354;2023-03-21T04:19:09;94160.97;;;12.29;51.76
11692;BME280;33659;42.672;23.354;2023-03-21T04:21:36;94159.34;;;12.40;51.34
11692;BME280;33659;42.672;23.354;2023-03-21T04:24:03;94161.97;;;12.60;51.06
11692;BME280;33659;42.672;23.354;2023-03-21T04:26:31;94150.97;;;12.70;50.95
11692;BME280;33659;42.672;23.354;2023-03-21T04:29:01;94144.81;;;12.82;50.87
11692;BME280;33659;42.672;23.354;2023-03-21T04:31:28;94159.22;;;12.91;50.61
11692;BME280;33659;42.672;23.354;2023-03-21T04:34:00;94139.09;;;12.95;51.06
11692;BME280;33659;42.672;23.354;2023-03-21T04:36:28;94138.66;;;12.93;51.00
11692;BME280;33659;42.672;23.354;2023-03-21T04:39:03;94146.59;;;12.97;50.82
11692;BME280;33659;42.672;23.354;2023-03-21T04:41:34;94158.59;;;12.98;50.90
11692;BME280;33659;42.672;23.354;2023-03-21T04:44:02;94155.69;;;13.03;50.91
11692;BME280;33659;42.672;23.354;2023-03-21T04:46:29;94150.56;;;13.10;50.79
11692;BME280;33659;42.672;23.354;2023-03-21T04:48:56;94151.97;;;13.04;50.96
11692;BME280;33659;42.672;23.354;2023-03-21T04:51:22;94154.31;;;13.09;50.68
11692;BME280;33659;42.672;23.354;2023-03-21T04:53:49;94156.84;;;13.06;50.81
11692;BME280;33659;42.672;23.354;2023-03-21T04:56:17;94159.41;;;13.02;50.83
11692;BME280;33659;42.672;23.354;2023-03-21T04:58:44;94159.75;;;13.00;50.92
11692;BME280;33659;42.672;23.354;2023-03-21T05:01:12;94157.06;;;12.97;50.87
11692;BME280;33659;42.672;23.354;2023-03-21T05:03:44;94165.78;;;13.01;50.76
11692;BME280;33659;42.672;23.354;2023-03-21T05:06:11;94162.94;;;12.90;50.91
11692;BME280;33659;42.672;23.354;2023-03-21T05:08:38;94153.50;;;12.66;51.37
11692;BME280;33659;42.672;23.354;2023-03-21T05:11:05;94172.94;;;12.65;51.65
11692;BME280;33659;42.672;23.354;2023-03-21T05:13:32;94174.41;;;12.63;51.95
11692;BME280;33659;42.672;23.354;2023-03-21T05:15:59;94162.53;;;12.69;52.04
11692;BME280;33659;42.672;23.354;2023-03-21T05:18:27;94170.59;;;12.80;51.73
11692;BME280;33659;42.672;23.354;2023-03-21T05:20:56;94160.19;;;12.83;51.02
11692;BME280;33659;42.672;23.354;2023-03-21T05:23:23;94175.03;;;12.95;50.53
11692;BME280;33659;42.672;23.354;2023-03-21T05:25:50;94177.34;;;13.00;50.45
11692;BME280;33659;42.672;23.354;2023-03-21T05:28:17;94177.97;;;12.93;50.55
11692;BME280;33659;42.672;23.354;2023-03-21T05:30:44;94176.94;;;12.59;50.99
11692;BME280;33659;42.672;23.354;2023-03-21T05:33:11;94177.50;;;12.14;52.52
11692;BME280;33659;42.672;23.354;2023-03-21T05:35:39;94172.81;;;11.88;53.06
11692;BME280;33659;42.672;23.354;2023-03-21T05:38:05;94176.16;;;11.73;53.71
11692;BME280;33659;42.672;23.354;2023-03-21T05:40:32;94177.94;;;11.69;53.79
11692;BME280;33659;42.672;23.354;2023-03-21T05:42:59;94181.31;;;11.69;53.80
11692;BME280;33659;42.672;23.354;2023-03-21T05:45:26;94179.59;;;11.77;53.67
11692;BME280;33659;42.672;23.354;2023-03-21T05:47:52;94180.75;;;11.91;53.45
11692;BME280;33659;42.672;23.354;2023-03-21T05:50:19;94170.66;;;12.09;52.86
11692;BME280;33659;42.672;23.354;2023-03-21T05:52:47;94165.44;;;12.29;52.70
11692;BME280;33659;42.672;23.354;2023-03-21T05:55:14;94168.03;;;12.44;52.17
11692;BME280;33659;42.672;23.354;2023-03-21T05:57:40;94159.91;;;12.50;51.88
11692;BME280;33659;42.672;23.354;2023-03-21T06:00:08;94145.97;;;12.26;52.29
11692;BME280;33659;42.672;23.354;2023-03-21T06:02:36;94158.19;;;12.38;52.19
11692;BME280;33659;42.672;23.354;2023-03-21T06:05:04;94156.81;;;12.44;52.36
11692;BME280;33659;42.672;23.354;2023-03-21T06:07:31;94157.00;;;12.55;51.95
11692;BME280;33659;42.672;23.354;2023-03-21T06:09:59;94130.41;;;12.53;51.88
11692;BME280;33659;42.672;23.354;2023-03-21T06:12:26;94135.25;;;12.70;51.44
11692;BME280;33659;42.672;23.354;2023-03-21T06:14:53;94138.97;;;12.88;51.02
11692;BME280;33659;42.672;23.354;2023-03-21T06:17:19;94136.59;;;13.02;50.07
11692;BME280;33659;42.672;23.354;2023-03-21T06:19:46;94143.09;;;13.12;49.83
11692;BME280;33659;42.672;23.354;2023-03-21T06:22:13;94138.84;;;13.23;49.83
11692;BME280;33659;42.672;23.354;2023-03-21T06:24:39;94144.31;;;13.38;48.68
11692;BME280;33659;42.672;23.354;2023-03-21T06:27:08;94143.78;;;13.51;48.41
11692;BME280;33659;42.672;23.354;2023-03-21T06:29:34;94140.31;;;13.67;48.37
11692;BME280;33659;42.672;23.354;2023-03-21T06:32:07;94118.22;;;13.71;48.02
11692;BME280;33659;42.672;23.354;2023-03-21T06:34:34;94143.72;;;13.97;48.07
11692;BME280;33659;42.672;23.354;2023-03-21T06:37:00;94136.47;;;14.14;47.89
11692;BME280;33659;42.672;23.354;2023-03-21T06:39:28;94134.34;;;14.23;47.62
11692;BME280;33659;42.672;23.354;2023-03-21T06:41:55;94136.28;;;14.29;47.42
11692;BME280;33659;42.672;23.354;2023-03-21T06:44:23;94149.53;;;14.36;46.94
11692;BME280;33659;42.672;23.354;2023-03-21T06:46:50;94144.72;;;14.42;47.04
11692;BME280;33659;42.672;23.354;2023-03-21T06:49:17;94154.94;;;14.47;46.99
11692;BME280;33659;42.672;23.354;2023-03-21T06:51:44;94151.56;;;14.47;46.89
11692;BME280;33659;42.672;23.354;2023-03-21T06:54:10;94154.25;;;14.50;46.77
11692;BME280;33659;42.672;23.354;2023-03-21T06:56:38;94164.41;;;14.55;46.80
11692;BME280;33659;42.672;23.354;2023-03-21T06:59:05;94155.44;;;14.56;46.43
11692;BME280;33659;42.672;23.354;2023-03-21T07:01:34;94158.88;;;14.60;46.08
11692;BME280;33659;42.672;23.354;2023-03-21T07:04:00;94160.47;;;14.69;45.57
11692;BME280;33659;42.672;23.354;2023-03-21T07:06:29;94151.19;;;14.78;45.38
11692;BME280;33659;42.672;23.354;2023-03-21T07:08:55;94159.91;;;14.86;45.40
11692;BME280;33659;42.672;23.354;2023-03-21T07:11:23;94168.22;;;14.88;45.59
11692;BME280;33659;42.672;23.354;2023-03-21T07:13:50;94162.97;;;14.88;45.87
11692;BME280;33659;42.672;23.354;2023-03-21T07:16:18;94159.59;;;14.91;45.68
11692;BME280;33659;42.672;23.354;2023-03-21T07:18:47;94158.91;;;14.94;46.77
11692;BME280;33659;42.672;23.354;2023-03-21T07:21:13;94164.50;;;14.93;46.82
11692;BME280;33659;42.672;23.354;2023-03-21T07:23:40;94159.22;;;14.89;47.72
11692;BME280;33659;42.672;23.354;2023-03-21T07:26:07;94173.47;;;14.88;48.13
11692;BME280;33659;42.672;23.354;2023-03-21T07:28:33;94168.91;;;14.81;47.99
11692;BME280;33659;42.672;23.354;2023-03-21T07:31:03;94167.72;;;14.79;48.17
11692;BME280;33659;42.672;23.354;2023-03-21T07:33:31;94165.84;;;14.79;49.30
11692;BME280;33659;42.672;23.354;2023-03-21T07:35:59;94165.47;;;14.81;49.73
11692;BME280;33659;42.672;23.354;2023-03-21T07:38:27;94157.69;;;14.88;49.32
11692;BME280;33659;42.672;23.354;2023-03-21T07:40:57;94156.69;;;15.00;48.49
11692;BME280;33659;42.672;23.354;2023-03-21T07:43:25;94159.78;;;15.09;48.09
11692;BME280;33659;42.672;23.354;2023-03-21T07:45:55;94162.09;;;15.14;48.03
11692;BME280;33659;42.672;23.354;2023-03-21T07:48:22;94156.50;;;15.19;48.53
11692;BME280;33659;42.672;23.354;2023-03-21T07:50:48;94159.59;;;15.28;48.77
11692;BME280;33659;42.672;23.354;2023-03-21T07:53:17;94155.91;;;15.33;47.82
11692;BME280;33659;42.672;23.354;2023-03-21T07:55:43;94169.13;;;15.40;46.73
11692;BME280;33659;42.672;23.354;2023-03-21T07:58:10;94177.41;;;15.45;45.98
11692;BME280;33659;42.672;23.354;2023-03-21T08:00:37;94174.44;;;15.47;45.84
11692;BME280;33659;42.672;23.354;2023-03-21T08:03:03;94167.59;;;15.39;45.80
11692;BME280;33659;42.672;23.354;2023-03-21T08:05:33;94166.50;;;15.43;45.81
11692;BME280;33659;42.672;23.354;2023-03-21T08:08:01;94162.78;;;15.48;45.62
11692;BME280;33659;42.672;23.354;2023-03-21T08:10:29;94170.31;;;15.46;44.88
11692;BME280;33659;42.672;23.354;2023-03-21T08:12:56;94169.50;;;15.42;44.98
11692;BME280;33659;42.672;23.354;2023-03-21T08:15:23;94162.69;;;15.37;44.93
11692;BME280;33659;42.672;23.354;2023-03-21T08:17:50;94164.94;;;15.39;44.40
11692;BME280;33659;42.672;23.354;2023-03-21T08:20:19;94163.38;;;15.31;44.53
11692;BME280;33659;42.672;23.354;2023-03-21T08:22:47;94170.22;;;15.39;44.54
11692;BME280;33659;42.672;23.354;2023-03-21T08:25:15;94156.34;;;15.42;43.90
11692;BME280;33659;42.672;23.354;2023-03-21T08:27:44;94154.16;;;15.48;43.95
11692;BME280;33659;42.672;23.354;2023-03-21T08:30:14;94150.06;;;15.54;43.53
11692;BME280;33659;42.672;23.354;2023-03-21T08:32:42;94148.63;;;15.60;43.57
11692;BME280;33659;42.672;23.354;2023-03-21T08:35:10;94149.44;;;15.67;43.59
11692;BME280;33659;42.672;23.354;2023-03-21T08:37:38;94149.88;;;15.73;43.78
11692;BME280;33659;42.672;23.354;2023-03-21T08:40:07;94149.56;;;15.82;43.35
11692;BME280;33659;42.672;23.354;2023-03-21T08:42:35;94155.19;;;15.84;43.36
11692;BME280;33659;42.672;23.354;2023-03-21T08:45:04;94154.88;;;15.89;43.67
11692;BME280;33659;42.672;23.354;2023-03-21T08:47:31;94159.41;;;15.92;44.27
11692;BME280;33659;42.672;23.354;2023-03-21T08:49:58;94156.09;;;16.02;43.81
11692;BME280;33659;42.672;23.354;2023-03-21T08:52:25;94156.09;;;15.98;44.92
11692;BME280;33659;42.672;23.354;2023-03-21T08:54:52;94153.88;;;16.04;44.62
11692;BME280;33659;42.672;23.354;2023-03-21T08:57:19;94144.50;;;16.14;44.03
11692;BME280;33659;42.672;23.354;2023-03-21T08:59:45;94149.44;;;16.19;42.71
11692;BME280;33659;42.672;23.354;2023-03-21T09:02:14;94150.59;;;16.25;42.70
11692;BME280;33659;42.672;23.354;2023-03-21T09:04:42;94146.09;;;16.29;42.69
11692;BME280;33659;42.672;23.354;2023-03-21T09:07:09;94137.09;;;16.34;42.67
11692;BME280;33659;42.672;23.354;2023-03-21T09:09:36;94133.69;;;16.30;42.80
11692;BME280;33659;42.672;23.354;2023-03-21T09:12:04;94119.00;;;16.32;42.86
11692;BME280;33659;42.672;23.354;2023-03-21T09:14:30;94135.28;;;16.52;42.49
11692;BME280;33659;42.672;23.354;2023-03-21T09:16:59;94133.44;;;16.60;41.86
11692;BME280;33659;42.672;23.354;2023-03-21T09:19:27;94140.63;;;16.66;41.63
11692;BME280;33659;42.672;23.354;2023-03-21T09:21:54;94115.00;;;16.63;41.76
11692;BME280;33659;42.672;23.354;2023-03-21T09:24:21;94132.06;;;16.84;41.34
11692;BME280;33659;42.672;23.354;2023-03-21T09:26:48;94131.31;;;16.83;41.28
11692;BME280;33659;42.672;23.354;2023-03-21T09:29:16;94117.75;;;16.85;41.05
11692;BME280;33659;42.672;23.354;2023-03-21T09:31:43;94110.25;;;16.94;41.12
11692;BME280;33659;42.672;23.354;2023-03-21T09:34:11;94112.50;;;17.06;41.33
11692;BME280;33659;42.672;23.354;2023-03-21T09:36:41;94113.28;;;17.17;41.21
11692;BME280;33659;42.672;23.354;2023-03-21T09:39:08;94109.16;;;17.30;40.99
11692;BME280;33659;42.672;23.354;2023-03-21T09:42:00;94105.03;;;17.44;41.13
11692;BME280;33659;42.672;23.354;2023-03-21T09:44:38;94089.94;;;17.55;40.92
11692;BME280;33659;42.672;23.354;2023-03-21T09:47:14;94080.50;;;17.61;40.58
11692;BME280;33659;42.672;23.354;2023-03-21T09:49:47;94077.88;;;17.54;41.72
11692;BME280;33659;42.672;23.354;2023-03-21T09:52:19;94080.88;;;17.42;41.03
11692;BME280;33659;42.672;23.354;2023-03-21T09:54:46;94092.19;;;17.49;41.28
11692;BME280;33659;42.672;23.354;2023-03-21T09:57:21;94086.19;;;17.45;41.37
11692;BME280;33659;42.672;23.354;2023-03-21T09:59:53;94105.41;;;17.49;41.49
11692;BME280;33659;42.672;23.354;2023-03-21T10:02:37;94091.81;;;17.51;40.95
11692;BME280;33659;42.672;23.354;2023-03-21T10:05:11;94088.03;;;17.45;41.00
11692;BME280;33659;42.672;23.354;2023-03-21T10:07:45;94082.41;;;17.46;40.44
11692;BME280;33659;42.672;23.354;2023-03-21T10:10:20;94080.88;;;17.27;40.72
11692;BME280;33659;42.672;23.354;2023-03-21T10:12:49;94083.13;;;17.25;41.91
11692;BME280;33659;42.672;23.354;2023-03-21T10:15:20;94071.81;;;17.32;41.94
11692;BME280;33659;42.672;23.354;2023-03-21T10:17:51;94071.47;;;17.26;41.15
11692;BME280;33659;42.672;23.354;2023-03-21T10:20:21;94059.41;;;17.29;41.94
11692;BME280;33659;42.672;23.354;2023-03-21T10:22:52;94060.53;;;17.49;41.05
11692;BME280;33659;42.672;23.354;2023-03-21T10:25:21;94053.38;;;17.71;40.97
11692;BME280;33659;42.672;23.354;2023-03-21T10:27:50;94059.34;;;17.97;40.44
11692;BME280;33659;42.672;23.354;2023-03-21T10:30:27;94057.75;;;18.28;39.82
11692;BME280;33659;42.672;23.354;2023-03-21T10:32:56;94055.00;;;18.53;39.41
11692;BME280;33659;42.672;23.354;2023-03-21T10:35:26;94054.94;;;18.74;38.18
11692;BME280;33659;42.672;23.354;2023-03-21T10:37:55;94064.66;;;18.95;38.14
11692;BME280;33659;42.672;23.354;2023-03-21T10:40:22;94071.75;;;19.09;37.81
11692;BME280;33659;42.672;23.354;2023-03-21T10:42:49;94066.03;;;19.14;36.64
11692;BME280;33659;42.672;23.354;2023-03-21T10:45:17;94064.59;;;18.99;36.29
11692;BME280;33659;42.672;23.354;2023-03-21T10:47:47;94065.09;;;18.79;36.82
11692;BME280;33659;42.672;23.354;2023-03-21T10:50:16;94064.88;;;18.49;36.78
11692;BME280;33659;42.672;23.354;2023-03-21T10:52:50;94058.88;;;18.30;37.23
11692;BME280;33659;42.672;23.354;2023-03-21T10:55:24;94066.47;;;18.25;36.66
11692;BME280;33659;42.672;23.354;2023-03-21T10:57:55;94034.84;;;17.85;36.41
11692;BME280;33659;42.672;23.354;2023-03-21T11:00:25;94057.84;;;17.89;37.14
11692;BME280;33659;42.672;23.354;2023-03-21T11:02:53;94049.94;;;17.85;37.24
11692;BME280;33659;42.672;23.354;2023-03-21T11:05:23;94027.34;;;17.73;37.30
11692;BME280;33659;42.672;23.354;2023-03-21T11:08:02;94024.66;;;17.88;37.74
11692;BME280;33659;42.672;23.354;2023-03-21T11:10:34;94031.41;;;18.10;36.90
11692;BME280;33659;42.672;23.354;2023-03-21T11:13:05;94029.41;;;18.28;36.05
11692;BME280;33659;42.672;23.354;2023-03-21T11:15:40;94030.91;;;18.36;35.51
11692;BME280;33659;42.672;23.354;2023-03-21T11:18:16;94028.59;;;18.49;34.92
11692;BME280;33659;42.672;23.354;2023-03-21T11:20:49;94034.56;;;18.60;34.66
11692;BME280;33659;42.672;23.354;2023-03-21T11:23:16;94030.75;;;18.72;34.36
11692;BME280;33659;42.672;23.354;2023-03-21T11:25:47;94020.13;;;18.79;34.66
11692;BME280;33659;42.672;23.354;2023-03-21T11:28:16;94014.84;;;18.79;34.85
11692;BME280;33659;42.672;23.354;2023-03-21T11:30:51;93989.91;;;18.77;34.97
11692;BME280;33659;42.672;23.354;2023-03-21T11:33:21;93990.66;;;18.77;34.89
11692;BME280;33659;42.672;23.354;2023-03-21T11:36:02;94008.97;;;19.06;34.52
11692;BME280;33659;42.672;23.354;2023-03-21T11:38:31;94002.06;;;19.19;34.46
11692;BME280;33659;42.672;23.354;2023-03-21T11:41:01;94004.69;;;19.26;34.14
11692;BME280;33659;42.672;23.354;2023-03-21T11:43:30;93991.88;;;19.21;34.20
11692;BME280;33659;42.672;23.354;2023-03-21T11:45:59;93999.81;;;19.21;34.27
11692;BME280;33659;42.672;23.354;2023-03-21T11:48:26;93992.00;;;19.07;34.00
11692;BME280;33659;42.672;23.354;2023-03-21T11:50:58;93994.66;;;19.03;33.86
11692;BME280;33659;42.672;23.354;2023-03-21T11:53:36;93989.75;;;19.02;33.87
11692;BME280;33659;42.672;23.354;2023-03-21T11:56:21;93983.00;;;18.93;33.96
11692;BME280;33659;42.672;23.354;2023-03-21T11:59:01;93982.34;;;18.82;34.16
11692;BME280;33659;42.672;23.354;2023-03-21T12:01:35;93991.41;;;18.81;34.25
11692;BME280;33659;42.672;23.354;2023-03-21T12:04:19;93986.16;;;18.74;34.32
11692;BME280;33659;42.672;23.354;2023-03-21T12:06:52;93980.88;;;18.74;34.42
11692;BME280;33659;42.672;23.354;2023-03-21T12:09:33;93971.75;;;18.79;34.47
11692;BME280;33659;42.672;23.354;2023-03-21T12:12:14;93971.81;;;18.72;34.55
11692;BME280;33659;42.672;23.354;2023-03-21T12:14:49;93958.22;;;18.66;34.36
11692;BME280;33659;42.672;23.354;2023-03-21T12:17:29;93959.31;;;18.76;34.12
11692;BME280;33659;42.672;23.354;2023-03-21T12:20:09;93964.22;;;18.81;33.62
11692;BME280;33659;42.672;23.354;2023-03-21T12:22:46;93954.03;;;18.76;33.77
11692;BME280;33659;42.672;23.354;2023-03-21T12:25:21;93957.84;;;18.67;34.11
11692;BME280;33659;42.672;23.354;2023-03-21T12:28:02;93953.72;;;18.59;34.31
11692;BME280;33659;42.672;23.354;2023-03-21T12:30:42;93957.91;;;18.53;34.78
11692;BME280;33659;42.672;23.354;2023-03-21T12:33:21;93949.63;;;18.51;35.05
11692;BME280;33659;42.672;23.354;2023-03-21T12:36:03;93946.59;;;18.53;35.19
11692;BME280;33659;42.672;23.354;2023-03-21T12:38:40;93944.31;;;18.55;35.21
11692;BME280;33659;42.672;23.354;2023-03-21T12:41:18;93950.38;;;18.52;34.73
11692;BME280;33659;42.672;23.354;2023-03-21T12:43:52;93941.34;;;18.46;35.02
11692;BME280;33659;42.672;23.354;2023-03-21T12:46:26;93916.91;;;18.31;35.15
11692;BME280;33659;42.672;23.354;2023-03-21T12:48:57;93939.50;;;18.43;35.03
11692;BME280;33659;42.672;23.354;2023-03-21T12:51:28;93926.31;;;18.35;34.96
11692;BME280;33659;42.672;23.354;2023-03-21T12:54:01;93934.97;;;18.39;35.03
11692;BME280;33659;42.672;23.354;2023-03-21T12:56:31;93919.16;;;18.32;35.07
11692;BME280;33659;42.672;23.354;2023-03-21T12:59:07;93932.31;;;18.39;35.05
11692;BME280;33659;42.672;23.354;2023-03-21T13:01:39;93925.94;;;18.33;35.03
11692;BME280;33659;42.672;23.354;2023-03-21T13:07:04;93921.88;;;18.18;35.35
11692;BME280;33659;42.672;23.354;2023-03-21T13:09:35;93898.91;;;18.04;35.72
11692;BME280;33659;42.672;23.354;2023-03-21T13:12:17;93919.22;;;18.18;35.68